KHWO

North Perry Airport

Hollywood, Florida, USA
METAR KHWO 212153Z 32007KT 10SM CLR 31/24 A2993 RMK AO2 LTG DSNT N AND NE RAE2058 TSE07 SLP136 P0000 T03060239
Observed Flight Rules
Jun-21 @ 21:53 UTC (11 minutes ago) Visual Flight Rules
Wind Visibility Clouds
320° at 7 knots 10 miles
  • Clear skies
Temperatures Readings Precipitation
Current 31°C / 88°F
Dewpoint 24°C / 75°F
Humidity 66%
Altimeter 29.93" Hg
Pressure 1013.6 hPa
Elevation 2
Current Rain 0.005
METAR KHWO 212153Z 32007KT 10SM CLR 31/24 A2993 RMK AO2 LTG DSNT N AND NE RAE2058 TSE07 SLP136 P0000 T03060239
Observed Flight Rules
Jun-21 @ 21:53 UTC
(11 minutes ago)
VFR
Wind Visibility
320° at 7 knots 10 miles
Clouds
  • Clear skies
Temperature Dewpoint
31°C / 88°F 24°C / 75°F
Humidity Altimeter Pressure
66% 29.93" Hg 1013.6 hPa
Current Rain
0.005